createdAt,value
2022-09-18T00:01:33.223Z,1.80
2022-09-18T00:04:05.109Z,1.87
2022-09-18T00:06:39.115Z,1.60
2022-09-18T00:09:10.599Z,1.70
2022-09-18T00:11:41.914Z,1.87
2022-09-18T00:14:12.718Z,1.70
2022-09-18T00:16:40.095Z,1.50
2022-09-18T00:19:07.716Z,1.60
2022-09-18T00:21:37.223Z,1.70
2022-09-18T00:24:06.655Z,1.57
2022-09-18T00:26:35.422Z,1.60
2022-09-18T00:29:03.034Z,1.63
2022-09-18T00:31:34.797Z,1.70
2022-09-18T00:34:07.587Z,1.50
2022-09-18T00:36:35.577Z,1.40
2022-09-18T00:39:05.223Z,1.40
2022-09-18T00:41:36.129Z,1.43
2022-09-18T00:44:36.144Z,1.60
2022-09-18T00:47:12.056Z,1.50
2022-09-18T00:49:47.144Z,1.33
2022-09-18T00:52:17.098Z,1.77
2022-09-18T00:54:54.485Z,1.50
2022-09-18T00:57:33.468Z,1.50
2022-09-18T01:00:04.773Z,2.07
2022-09-18T01:02:31.639Z,1.47
2022-09-18T01:04:58.548Z,1.30
2022-09-18T01:07:49.475Z,1.27
2022-09-18T01:10:57.179Z,1.20
2022-09-18T01:14:11.649Z,1.20
2022-09-18T01:16:58.248Z,1.20
2022-09-18T01:20:00.049Z,1.80
2022-09-18T01:22:59.312Z,1.17
2022-09-18T01:25:56.371Z,1.00
2022-09-18T01:28:39.097Z,1.13
2022-09-18T01:31:22.955Z,1.10
2022-09-18T01:34:03.791Z,1.07
2022-09-18T01:36:38.861Z,1.40
2022-09-18T01:39:19.301Z,1.40
2022-09-18T01:41:51.480Z,1.40
2022-09-18T01:44:26.512Z,1.40
2022-09-18T01:46:57.614Z,1.67
2022-09-18T01:49:33.056Z,2.10
2022-09-18T01:52:10.104Z,2.37
2022-09-18T01:54:43.313Z,1.93
2022-09-18T01:57:25.647Z,1.87
2022-09-18T02:00:08.707Z,1.60
2022-09-18T02:02:42.491Z,1.80
2022-09-18T02:05:26.176Z,1.90
2022-09-18T02:08:14.269Z,2.03
2022-09-18T02:10:51.172Z,1.87
2022-09-18T02:13:28.883Z,1.80
2022-09-18T02:16:09.496Z,2.27
2022-09-18T02:18:44.657Z,1.90
2022-09-18T02:21:20.750Z,1.70
2022-09-18T02:23:48.338Z,1.40
2022-09-18T02:26:18.125Z,1.87
2022-09-18T02:28:47.194Z,1.70
2022-09-18T02:31:14.013Z,1.43
2022-09-18T02:33:41.020Z,1.33
2022-09-18T02:36:20.172Z,1.30
2022-09-18T02:39:39.138Z,1.40
2022-09-18T02:42:43.187Z,1.20
2022-09-18T02:45:15.882Z,1.17
2022-09-18T02:48:11.176Z,1.27
2022-09-18T02:50:50.406Z,1.27
2022-09-18T02:53:46.044Z,1.20
2022-09-18T02:56:34.118Z,1.13
2022-09-18T02:59:33.174Z,1.10
2022-09-18T03:02:00.602Z,1.03
2022-09-18T03:04:28.382Z,1.00
2022-09-18T03:06:55.523Z,0.73
2022-09-18T03:09:22.764Z,0.90
2022-09-18T03:11:50.272Z,0.90
2022-09-18T03:14:17.133Z,0.83
2022-09-18T03:16:43.970Z,1.20
2022-09-18T03:19:11.999Z,0.90
2022-09-18T03:21:38.805Z,0.90
2022-09-18T03:24:05.838Z,0.73
2022-09-18T03:26:32.703Z,0.90
2022-09-18T03:28:59.515Z,0.80
2022-09-18T03:31:26.812Z,0.70
2022-09-18T03:33:53.659Z,0.80
2022-09-18T03:36:20.516Z,1.00
2022-09-18T03:38:47.376Z,1.50
2022-09-18T03:41:14.400Z,1.50
2022-09-18T03:43:41.858Z,1.67
2022-09-18T03:46:08.670Z,2.37
2022-09-18T03:48:35.590Z,2.37
2022-09-18T03:51:02.389Z,1.90
2022-09-18T03:53:29.185Z,2.07
2022-09-18T03:55:56.009Z,2.37
2022-09-18T03:58:22.906Z,2.10
2022-09-18T04:00:49.653Z,2.37
2022-09-18T04:03:16.532Z,1.90
2022-09-18T04:05:43.337Z,1.70
2022-09-18T04:08:10.110Z,2.30
2022-09-18T04:10:36.884Z,1.80
2022-09-18T04:13:03.586Z,1.70
2022-09-18T04:15:30.322Z,2.30
2022-09-18T04:17:57.078Z,1.90
2022-09-18T04:20:23.978Z,2.10
2022-09-18T04:22:51.179Z,1.57
2022-09-18T04:25:18.084Z,1.60
2022-09-18T04:27:46.018Z,1.60
2022-09-18T04:30:13.183Z,1.97
2022-09-18T04:32:41.690Z,1.80
2022-09-18T04:35:09.050Z,2.80
2022-09-18T04:37:35.958Z,2.27
2022-09-18T04:40:03.930Z,2.80
2022-09-18T04:42:31.390Z,2.50
2022-09-18T04:44:58.217Z,2.70
2022-09-18T04:47:25.044Z,2.73
2022-09-18T04:49:52.535Z,3.03
2022-09-18T04:52:19.607Z,3.07
2022-09-18T04:54:46.384Z,3.00
2022-09-18T04:57:13.199Z,3.10
2022-09-18T04:59:40.077Z,2.90
2022-09-18T05:02:06.989Z,3.00
2022-09-18T05:04:33.903Z,3.27
2022-09-18T05:07:01.528Z,2.60
2022-09-18T05:09:28.534Z,3.00
2022-09-18T05:11:55.348Z,2.40
2022-09-18T05:14:22.170Z,2.80
2022-09-18T05:16:49.035Z,2.87
2022-09-18T05:19:15.844Z,2.50
2022-09-18T05:21:42.771Z,2.70
2022-09-18T05:24:09.575Z,1.90
2022-09-18T05:26:36.497Z,2.17
2022-09-18T05:29:03.359Z,2.23
2022-09-18T05:31:30.191Z,2.47
2022-09-18T05:33:57.079Z,1.93
2022-09-18T05:36:23.943Z,2.27
2022-09-18T05:38:51.530Z,1.90
2022-09-18T05:41:18.271Z,1.97
2022-09-18T05:43:45.672Z,1.73
2022-09-18T05:46:12.788Z,1.53
2022-09-18T05:48:39.654Z,1.80
2022-09-18T05:51:06.642Z,1.53
2022-09-18T05:53:33.487Z,1.53
2022-09-18T05:56:00.718Z,1.70
2022-09-18T05:58:27.485Z,2.03
2022-09-18T06:00:57.777Z,1.73
2022-09-18T06:03:24.823Z,2.80
2022-09-18T06:05:54.082Z,2.00
2022-09-18T06:08:21.226Z,1.80
2022-09-18T06:10:48.150Z,2.60
2022-09-18T06:13:17.681Z,1.90
2022-09-18T06:15:47.513Z,1.57
2022-09-18T06:18:15.429Z,1.27
2022-09-18T06:20:43.630Z,1.70
2022-09-18T06:23:10.894Z,1.90
2022-09-18T06:25:37.748Z,1.57
2022-09-18T06:28:06.512Z,2.37
2022-09-18T06:30:36.268Z,1.50
2022-09-18T06:33:07.317Z,1.70
2022-09-18T06:35:36.293Z,1.50
2022-09-18T06:38:05.971Z,1.40
2022-09-18T06:40:33.593Z,1.57
2022-09-18T06:43:02.150Z,1.60
2022-09-18T06:45:30.977Z,1.50
2022-09-18T06:48:04.915Z,1.40
2022-09-18T06:50:31.926Z,1.57
2022-09-18T06:53:12.222Z,1.70
2022-09-18T06:55:39.517Z,1.10
2022-09-18T06:58:06.354Z,1.40
2022-09-18T07:00:33.388Z,1.43
2022-09-18T07:03:03.004Z,1.07
2022-09-18T07:05:32.860Z,1.47
2022-09-18T07:08:00.138Z,1.70
2022-09-18T07:10:27.388Z,1.50
2022-09-18T07:12:59.333Z,1.60
2022-09-18T07:15:26.902Z,1.60
2022-09-18T07:18:03.259Z,1.20
2022-09-18T07:20:30.663Z,1.60
2022-09-18T07:23:01.054Z,1.40
2022-09-18T07:25:31.501Z,1.67
2022-09-18T07:28:10.204Z,1.63
2022-09-18T07:30:39.095Z,1.33
2022-09-18T07:33:08.677Z,1.33
2022-09-18T07:35:36.271Z,1.53
2022-09-18T07:38:06.240Z,1.40
2022-09-18T07:40:34.011Z,1.70
2022-09-18T07:43:04.946Z,1.33
2022-09-18T07:45:32.631Z,1.40
2022-09-18T07:48:05.838Z,1.57
2022-09-18T07:50:33.580Z,1.70
2022-09-18T07:53:05.512Z,1.70
2022-09-18T07:55:35.818Z,1.67
2022-09-18T07:58:06.373Z,1.30
2022-09-18T08:00:36.674Z,1.50
2022-09-18T08:03:12.346Z,1.97
2022-09-18T08:05:41.159Z,1.60
2022-09-18T08:08:15.881Z,1.53
2022-09-18T08:10:47.128Z,1.90
2022-09-18T08:13:14.324Z,1.50
2022-09-18T08:15:42.860Z,1.57
2022-09-18T08:18:11.669Z,1.50
2022-09-18T08:20:38.864Z,1.40
2022-09-18T08:23:09.221Z,1.53
2022-09-18T08:25:37.271Z,1.60
2022-09-18T08:28:06.553Z,1.60
2022-09-18T08:30:35.014Z,1.60
2022-09-18T08:33:05.493Z,1.83
2022-09-18T08:35:32.856Z,1.80
2022-09-18T08:38:00.874Z,1.63
2022-09-18T08:41:12.774Z,2.07
2022-09-18T08:43:58.375Z,1.67
2022-09-18T08:46:49.539Z,1.77
2022-09-18T08:49:22.274Z,1.60
2022-09-18T08:52:14.955Z,1.53
2022-09-18T08:54:47.739Z,1.97
2022-09-18T08:57:19.802Z,1.93
2022-09-18T08:59:55.923Z,1.50
2022-09-18T09:02:47.483Z,1.97
2022-09-18T09:05:26.020Z,1.90
2022-09-18T09:08:10.756Z,2.03
2022-09-18T09:10:50.732Z,2.00
2022-09-18T09:13:43.911Z,1.77
2022-09-18T09:16:42.221Z,1.50
2022-09-18T09:19:32.531Z,1.83
2022-09-18T09:22:19.801Z,1.87
2022-09-18T09:25:13.981Z,1.97
2022-09-18T09:28:04.587Z,1.93
2022-09-18T09:30:35.618Z,2.17
2022-09-18T09:33:34.625Z,1.97
2022-09-18T09:36:12.138Z,1.73
2022-09-18T09:39:02.913Z,1.83
2022-09-18T09:41:54.380Z,1.70
2022-09-18T09:44:52.734Z,2.23
2022-09-18T09:47:47.828Z,1.70
2022-09-18T09:50:40.326Z,2.10
2022-09-18T09:53:12.675Z,1.40
2022-09-18T09:56:25.036Z,2.03
2022-09-18T09:59:41.524Z,2.00
2022-09-18T10:02:27.561Z,1.83
2022-09-18T10:05:06.872Z,2.10
2022-09-18T10:07:51.597Z,2.23
2022-09-18T10:10:40.208Z,2.50
2022-09-18T10:13:18.410Z,2.27
2022-09-18T10:15:58.102Z,2.27
2022-09-18T10:18:31.273Z,2.30
2022-09-18T10:21:07.674Z,2.17
2022-09-18T10:23:40.935Z,1.93
2022-09-18T10:26:17.868Z,2.50
2022-09-18T10:28:44.681Z,2.50
2022-09-18T10:31:14.901Z,2.20
2022-09-18T10:33:45.748Z,2.17
2022-09-18T10:36:28.142Z,2.43
2022-09-18T10:38:55.337Z,2.33
2022-09-18T10:41:40.450Z,2.37
2022-09-18T10:44:21.354Z,2.30
2022-09-18T10:47:21.150Z,2.20
2022-09-18T10:50:17.533Z,2.30
2022-09-18T10:52:46.871Z,2.50
2022-09-18T10:55:24.503Z,2.60
2022-09-18T10:57:57.258Z,2.37
2022-09-18T11:00:29.272Z,2.30
2022-09-18T11:03:16.083Z,2.17
2022-09-18T11:06:18.147Z,2.87
2022-09-18T11:08:53.023Z,2.50
2022-09-18T11:11:38.145Z,2.57
2022-09-18T11:14:15.939Z,2.57
2022-09-18T11:16:49.973Z,2.80
2022-09-18T11:19:24.273Z,2.00
2022-09-18T11:21:55.170Z,3.00
2022-09-18T11:24:33.629Z,2.50
2022-09-18T11:27:18.187Z,2.77
2022-09-18T11:29:45.127Z,3.03
2022-09-18T11:32:18.072Z,2.70
2022-09-18T11:34:52.918Z,2.70
2022-09-18T11:37:33.391Z,2.60
2022-09-18T11:40:28.512Z,2.73
2022-09-18T11:42:56.974Z,2.37
2022-09-18T11:45:45.888Z,2.60
2022-09-18T11:48:39.147Z,2.50
2022-09-18T11:51:33.426Z,2.10
2022-09-18T11:54:08.400Z,2.93
2022-09-18T11:56:44.407Z,2.57
2022-09-18T11:59:27.130Z,2.70
2022-09-18T12:02:09.825Z,2.80
2022-09-18T12:05:03.944Z,2.87
2022-09-18T12:07:55.492Z,2.77
2022-09-18T12:11:00.131Z,2.70
2022-09-18T12:14:01.143Z,2.80
2022-09-18T12:16:40.670Z,2.33
2022-09-18T12:19:32.899Z,2.30
2022-09-18T12:22:25.451Z,2.00
2022-09-18T12:24:55.686Z,2.53
2022-09-18T12:27:36.538Z,2.50
2022-09-18T12:30:10.285Z,2.00
2022-09-18T12:33:01.795Z,2.07
2022-09-18T12:36:08.231Z,2.60
2022-09-18T12:38:51.131Z,2.40
2022-09-18T12:41:54.212Z,2.27
2022-09-18T12:44:38.976Z,2.13
2022-09-18T12:47:44.820Z,2.47
2022-09-18T12:50:38.902Z,2.70
2022-09-18T12:53:43.373Z,2.70
2022-09-18T12:56:34.519Z,2.10
2022-09-18T12:59:42.579Z,2.37
2022-09-18T13:02:40.682Z,2.50
2022-09-18T13:05:36.547Z,2.77
2022-09-18T13:08:28.282Z,3.10
2022-09-18T13:11:12.650Z,2.33
2022-09-18T13:13:59.548Z,2.30
2022-09-18T13:16:50.464Z,2.53
2022-09-18T13:19:28.166Z,2.33
2022-09-18T13:22:02.456Z,2.60
2022-09-18T13:24:33.985Z,2.43
2022-09-18T13:27:09.130Z,2.23
2022-09-18T13:29:56.618Z,2.60
2022-09-18T13:32:45.925Z,2.70
2022-09-18T13:35:12.598Z,2.37
2022-09-18T13:37:41.353Z,2.37
2022-09-18T13:40:38.975Z,2.60
2022-09-18T13:43:38.636Z,2.73
2022-09-18T13:46:07.507Z,2.20
2022-09-18T13:48:40.410Z,2.20
2022-09-18T13:51:22.078Z,2.07
2022-09-18T13:54:20.469Z,2.53
2022-09-18T13:57:10.930Z,3.70
2022-09-18T13:59:59.142Z,2.43
2022-09-18T14:02:41.927Z,2.20
2022-09-18T14:05:33.208Z,2.90
2022-09-18T14:08:24.335Z,2.50
2022-09-18T14:11:17.251Z,3.20
2022-09-18T14:13:55.461Z,3.83
2022-09-18T14:16:23.702Z,3.37
2022-09-18T14:19:26.817Z,2.60
2022-09-18T14:21:54.153Z,2.90
2022-09-18T14:24:55.673Z,2.50
2022-09-18T14:27:48.814Z,2.23
2022-09-18T14:30:26.842Z,2.30
2022-09-18T14:33:08.521Z,2.03
2022-09-18T14:36:17.110Z,1.80
2022-09-18T14:38:43.979Z,1.90
2022-09-18T14:41:20.973Z,1.97
2022-09-18T14:44:04.060Z,1.90
2022-09-18T14:47:07.933Z,1.90
2022-09-18T14:49:43.354Z,2.23
2022-09-18T14:52:34.818Z,2.10
2022-09-18T14:55:24.048Z,2.00
2022-09-18T14:58:07.121Z,2.03
2022-09-18T15:00:37.612Z,2.37
2022-09-18T15:03:24.803Z,2.13
2022-09-18T15:06:07.505Z,2.50
2022-09-18T15:08:36.028Z,2.30
2022-09-18T15:11:04.273Z,2.00
2022-09-18T15:13:36.584Z,2.43
2022-09-18T15:16:04.410Z,2.13
2022-09-18T15:18:41.926Z,4.13
2022-09-18T15:21:33.764Z,4.73
2022-09-18T15:24:03.282Z,3.60
2022-09-18T15:26:45.732Z,3.90
2022-09-18T15:29:32.990Z,2.50
2022-09-18T15:32:05.094Z,2.77
2022-09-18T15:34:46.288Z,2.37
2022-09-18T15:37:24.056Z,1.90
2022-09-18T15:40:07.499Z,2.20
2022-09-18T15:42:50.718Z,2.10
2022-09-18T15:45:22.452Z,2.13
2022-09-18T15:47:49.935Z,1.80
2022-09-18T15:50:16.882Z,2.20
2022-09-18T15:52:53.925Z,1.50
2022-09-18T15:55:53.402Z,1.33
2022-09-18T15:58:43.095Z,1.60
2022-09-18T16:01:24.787Z,1.40
2022-09-18T16:04:07.914Z,1.50
2022-09-18T16:06:51.021Z,1.73
2022-09-18T16:09:44.199Z,1.53
2022-09-18T16:12:29.320Z,1.30
2022-09-18T16:15:25.444Z,1.07
2022-09-18T16:18:03.857Z,1.60
2022-09-18T16:20:41.374Z,1.00
2022-09-18T16:23:32.666Z,1.40
2022-09-18T16:26:10.520Z,1.80
2022-09-18T16:28:45.345Z,1.70
2022-09-18T16:31:16.983Z,1.97
2022-09-18T16:33:57.359Z,4.70
2022-09-18T16:36:28.846Z,3.43
2022-09-18T16:38:57.223Z,2.10
2022-09-18T16:41:24.642Z,1.23
2022-09-18T16:43:52.235Z,1.60
2022-09-18T16:46:20.722Z,1.37
2022-09-18T16:48:47.633Z,1.60
2022-09-18T16:51:14.370Z,1.73
2022-09-18T16:53:41.430Z,1.63
2022-09-18T16:56:14.422Z,1.23
2022-09-18T16:58:42.144Z,1.20
2022-09-18T17:01:09.299Z,1.30
2022-09-18T17:03:36.064Z,1.27
2022-09-18T17:06:02.838Z,1.37
2022-09-18T17:08:30.385Z,1.37
2022-09-18T17:10:57.683Z,1.77
2022-09-18T17:13:24.490Z,1.30
2022-09-18T17:15:51.552Z,1.07
2022-09-18T17:18:18.397Z,1.30
2022-09-18T17:20:48.057Z,1.47
2022-09-18T17:23:17.864Z,1.50
2022-09-18T17:25:44.701Z,1.60
2022-09-18T17:28:12.381Z,1.90
2022-09-18T17:30:43.088Z,1.67
2022-09-18T17:33:10.437Z,3.10
2022-09-18T17:35:37.625Z,3.23
2022-09-18T17:38:04.523Z,1.93
2022-09-18T17:40:31.414Z,1.40
2022-09-18T17:42:58.464Z,2.17
2022-09-18T17:45:25.318Z,1.40
2022-09-18T17:47:53.249Z,1.80
2022-09-18T17:50:20.873Z,1.43
2022-09-18T17:52:49.107Z,1.70
2022-09-18T17:55:16.209Z,1.93
2022-09-18T17:57:43.947Z,1.60
2022-09-18T18:00:11.174Z,1.50
2022-09-18T18:02:37.967Z,2.00
2022-09-18T18:05:05.698Z,1.70
2022-09-18T18:07:32.497Z,1.80
2022-09-18T18:10:00.259Z,2.30
2022-09-18T18:12:27.056Z,2.63
2022-09-18T18:14:53.852Z,1.80
2022-09-18T18:17:21.385Z,2.70
2022-09-18T18:19:50.308Z,2.30
2022-09-18T18:22:17.954Z,2.00
2022-09-18T18:24:45.020Z,1.00
2022-09-18T18:27:11.880Z,0.63
2022-09-18T18:29:39.768Z,0.70
2022-09-18T18:32:06.908Z,0.50
2022-09-18T18:34:33.714Z,0.73
2022-09-18T18:37:01.718Z,0.63
2022-09-18T18:39:28.696Z,0.60
2022-09-18T18:41:55.756Z,0.77
2022-09-18T18:44:23.305Z,0.60
2022-09-18T18:46:51.375Z,0.70
2022-09-18T18:49:18.169Z,1.33
2022-09-18T18:51:48.117Z,1.40
2022-09-18T18:54:21.359Z,2.37
2022-09-18T18:56:52.183Z,0.80
2022-09-18T18:59:22.249Z,1.20
2022-09-18T19:01:49.497Z,1.20
2022-09-18T19:04:21.465Z,1.40
2022-09-18T19:06:50.234Z,1.60
2022-09-18T19:09:24.492Z,1.33
2022-09-18T19:11:53.666Z,0.80
2022-09-18T19:14:25.186Z,1.10
2022-09-18T19:16:56.748Z,1.30
2022-09-18T19:19:30.505Z,1.32
2022-09-18T19:22:03.042Z,1.10
2022-09-18T19:24:30.456Z,1.33
2022-09-18T19:26:58.869Z,1.03
2022-09-18T19:29:25.698Z,1.53
2022-09-18T19:31:52.496Z,1.10
2022-09-18T19:34:22.062Z,1.27
2022-09-18T19:36:50.087Z,1.30
2022-09-18T19:39:22.718Z,1.23
2022-09-18T19:42:00.876Z,0.93
2022-09-18T19:44:47.420Z,1.30
2022-09-18T19:47:38.404Z,1.60
2022-09-18T19:50:06.224Z,2.77
2022-09-18T19:52:35.202Z,2.33
2022-09-18T19:55:02.012Z,1.60
2022-09-18T19:57:30.085Z,1.50
2022-09-18T19:59:58.695Z,1.27
2022-09-18T20:02:25.861Z,0.90
2022-09-18T20:04:52.617Z,1.00
2022-09-18T20:07:19.486Z,1.30
2022-09-18T20:09:46.220Z,1.00
2022-09-18T20:12:14.198Z,1.00
2022-09-18T20:14:41.178Z,0.80
2022-09-18T20:17:08.283Z,1.40
2022-09-18T20:19:35.716Z,1.00
2022-09-18T20:22:03.641Z,1.20
2022-09-18T20:24:33.128Z,1.40
2022-09-18T20:27:00.730Z,0.97
2022-09-18T20:29:27.938Z,1.30
2022-09-18T20:31:55.011Z,1.10
2022-09-18T20:34:23.204Z,1.20
2022-09-18T20:36:52.133Z,1.00
2022-09-18T20:39:19.062Z,0.90
2022-09-18T20:41:45.776Z,1.00
2022-09-18T20:44:12.555Z,1.03
2022-09-18T20:46:42.388Z,1.30
2022-09-18T20:49:10.756Z,1.50
2022-09-18T20:51:37.534Z,1.00
2022-09-18T20:54:09.157Z,1.10
2022-09-18T20:56:43.183Z,1.10
2022-09-18T20:59:16.593Z,1.10
2022-09-18T21:01:46.736Z,0.80
2022-09-18T21:04:19.413Z,1.40
2022-09-18T21:06:56.063Z,0.97
2022-09-18T21:09:26.771Z,1.10
2022-09-18T21:11:56.990Z,1.40
2022-09-18T21:14:24.528Z,1.97
2022-09-18T21:16:51.519Z,1.00
2022-09-18T21:19:20.922Z,1.00
2022-09-18T21:21:48.901Z,1.10
2022-09-18T21:24:17.261Z,1.50
2022-09-18T21:26:47.864Z,1.00
2022-09-18T21:29:17.948Z,1.23
2022-09-18T21:31:47.297Z,1.30
2022-09-18T21:34:24.224Z,1.07
2022-09-18T21:36:54.325Z,1.37
2022-09-18T21:39:21.154Z,1.27
2022-09-18T21:41:48.227Z,1.33
2022-09-18T21:44:27.049Z,1.30
2022-09-18T21:47:00.296Z,1.33
2022-09-18T21:49:29.234Z,1.27
2022-09-18T21:51:59.056Z,1.27
2022-09-18T21:54:27.084Z,1.20
2022-09-18T21:56:55.293Z,1.40
2022-09-18T21:59:25.092Z,1.27
2022-09-18T22:01:55.155Z,1.07
2022-09-18T22:04:32.330Z,1.63
2022-09-18T22:07:01.648Z,1.30
2022-09-18T22:09:38.417Z,1.43
2022-09-18T22:12:06.890Z,1.30
2022-09-18T22:14:35.293Z,1.53
2022-09-18T22:17:05.349Z,1.60
2022-09-18T22:19:40.553Z,1.57
2022-09-18T22:22:08.716Z,1.50
2022-09-18T22:24:35.571Z,1.63
2022-09-18T22:27:08.386Z,1.40
2022-09-18T22:29:38.446Z,1.27
2022-09-18T22:32:06.725Z,1.70
2022-09-18T22:34:34.919Z,1.83
2022-09-18T22:37:02.561Z,1.50
2022-09-18T22:39:30.076Z,1.37
2022-09-18T22:41:57.258Z,1.57
2022-09-18T22:44:24.106Z,1.60
2022-09-18T22:46:52.789Z,1.37
2022-09-18T22:49:22.875Z,1.60
2022-09-18T22:51:50.534Z,1.43
2022-09-18T22:54:23.644Z,1.77
2022-09-18T22:56:52.164Z,2.00
2022-09-18T22:59:22.652Z,1.80
2022-09-18T23:01:56.958Z,1.80
2022-09-18T23:04:29.700Z,2.43
2022-09-18T23:06:57.750Z,2.20
2022-09-18T23:09:25.030Z,2.40
2022-09-18T23:11:53.159Z,2.33
2022-09-18T23:14:23.797Z,2.90
2022-09-18T23:16:51.174Z,2.23
2022-09-18T23:19:26.717Z,3.13
2022-09-18T23:21:54.895Z,2.43
2022-09-18T23:24:23.802Z,2.33
2022-09-18T23:26:53.882Z,2.67
2022-09-18T23:29:23.645Z,2.70
2022-09-18T23:31:53.564Z,2.77
2022-09-18T23:34:23.917Z,2.80
2022-09-18T23:36:54.062Z,3.13
2022-09-18T23:39:28.523Z,2.50
2022-09-18T23:41:58.692Z,2.63
2022-09-18T23:44:28.579Z,2.80
2022-09-18T23:46:56.084Z,2.23
2022-09-18T23:49:23.758Z,2.00
2022-09-18T23:51:53.947Z,2.07
2022-09-18T23:54:28.120Z,2.43
2022-09-18T23:56:55.828Z,2.27
2022-09-18T23:59:24.943Z,2.07
